Terminal Aerodrome Forecast
Issued by NWS

Home | Current Version | Previous Version | Text Only | Print | Product List | Glossary On
Versions: 1 2 3 4 5 6 7 8 9 10 11 12 13 14 15 16 17 18 19 20 21 22 23 24 25 26 27 28 29 30 31 32 33 34 35 36
000
FTUS44 KLIX 101748 CCA
TAFGPT
TAF COR
KGPT 101748Z 1018/1118 VRB05KT 4SM BR OVC003
     FM101900 36012G18KT 5SM -SHRA BR OVC006
     FM102100 01012G18KT P6SM -SHRA OVC009
     FM110100 01018G27KT 4SM BR OVC007
     FM111000 03015G23KT P6SM -SHRA OVC030
     FM111600 03016G28KT P6SM BKN045=

USA.gov is the U.S. government's official web portal to all federal, state and local government web resources and services.